Propst Crossroads, North Carolina
Current Conditions -  °F | °C
As of 9:53 AM on Friday 19 Dec 2014 (Local Time) from KHKY Reporting Station
Clear Clear  
Wind Chill: 44°   Ceiling: Unl
Heat Index: 44°   Visibility: 10mi
Dew Point: 23°   Wind: 3mph
Humidity: 43%   Direction: 330°NNW
Pressure: 30.16"   Gusts: NA
Location:  35.6271°N, 81.2599°W
Report Text: KHKY 191453Z 33003KT 10SM CLR 07/M05 A3016 RMK AO2 SLP206 T00671050 50015
Loading
Personal Weather Stations






























Interactive Weather Map New forecast layout! Learn more

10-Day Weather Forecast

Advertisements
Track Severe Weather on mobile